createdAt,value
2022-07-25T00:00:29.571Z,7.00
2022-07-25T00:02:57.894Z,7.40
2022-07-25T00:05:25.460Z,6.93
2022-07-25T00:07:52.317Z,6.97
2022-07-25T00:10:19.623Z,7.00
2022-07-25T00:12:46.841Z,6.88
2022-07-25T00:15:14.068Z,6.95
2022-07-25T00:17:41.068Z,7.25
2022-07-25T00:20:09.150Z,7.90
2022-07-25T00:22:36.072Z,6.88
2022-07-25T00:25:03.834Z,6.90
2022-07-25T00:27:30.792Z,7.07
2022-07-25T00:29:57.678Z,7.13
2022-07-25T00:32:24.667Z,7.15
2022-07-25T00:34:51.741Z,7.38
2022-07-25T00:37:18.690Z,7.47
2022-07-25T00:39:45.573Z,7.68
2022-07-25T00:42:12.420Z,6.90
2022-07-25T00:44:39.371Z,7.28
2022-07-25T00:47:06.496Z,7.72
2022-07-25T00:49:33.422Z,7.43
2022-07-25T00:52:00.885Z,7.18
2022-07-25T00:54:28.926Z,6.68
2022-07-25T00:56:55.883Z,6.90
2022-07-25T00:59:22.758Z,6.80
2022-07-25T01:01:49.902Z,6.50
2022-07-25T01:04:17.329Z,6.85
2022-07-25T01:06:44.493Z,6.50
2022-07-25T01:09:11.619Z,6.75
2022-07-25T01:11:39.411Z,7.38
2022-07-25T01:14:06.990Z,7.20
2022-07-25T01:16:35.546Z,6.35
2022-07-25T01:19:02.445Z,6.70
2022-07-25T01:21:29.771Z,6.38
2022-07-25T01:23:56.652Z,6.40
2022-07-25T01:26:23.603Z,6.43
2022-07-25T01:28:50.491Z,6.00
2022-07-25T01:31:17.757Z,6.65
2022-07-25T01:33:44.719Z,6.47
2022-07-25T01:36:12.044Z,6.22
2022-07-25T01:38:38.976Z,5.65
2022-07-25T01:41:06.327Z,5.72
2022-07-25T01:43:33.397Z,5.05
2022-07-25T01:46:00.455Z,4.75
2022-07-25T01:48:27.561Z,5.03
2022-07-25T01:50:54.535Z,5.13
2022-07-25T01:53:22.004Z,5.32
2022-07-25T01:55:50.492Z,5.72
2022-07-25T01:58:19.073Z,5.30
2022-07-25T02:00:47.019Z,5.60
2022-07-25T02:03:32.430Z,5.63
2022-07-25T02:06:07.013Z,4.82
2022-07-25T02:08:35.109Z,5.85
2022-07-25T02:11:02.297Z,5.78
2022-07-25T02:13:29.157Z,5.30
2022-07-25T02:15:55.991Z,5.70
2022-07-25T02:18:22.960Z,5.45
2022-07-25T02:20:50.117Z,5.70
2022-07-25T02:23:17.301Z,5.28
2022-07-25T02:25:44.214Z,5.57
2022-07-25T02:28:11.040Z,5.93
2022-07-25T02:30:38.392Z,5.68
2022-07-25T02:33:05.324Z,5.20
2022-07-25T02:35:32.309Z,5.63
2022-07-25T02:37:59.169Z,5.70
2022-07-25T02:40:26.527Z,4.97
2022-07-25T02:42:53.474Z,5.47
2022-07-25T02:45:20.493Z,5.45
2022-07-25T02:47:47.411Z,5.22
2022-07-25T02:50:14.972Z,5.22
2022-07-25T02:52:43.427Z,5.22
2022-07-25T02:55:11.681Z,5.28
2022-07-25T02:57:38.852Z,5.35
2022-07-25T03:00:07.249Z,5.30
2022-07-25T03:02:36.400Z,5.18
2022-07-25T03:05:08.172Z,5.95
2022-07-25T03:07:35.838Z,5.10
2022-07-25T03:10:11.221Z,5.63
2022-07-25T03:12:39.376Z,4.88
2022-07-25T03:15:08.748Z,5.43
2022-07-25T03:17:36.047Z,5.40
2022-07-25T03:20:04.580Z,4.90
2022-07-25T03:22:31.576Z,4.80
2022-07-25T03:24:58.430Z,5.50
2022-07-25T03:27:25.279Z,5.50
2022-07-25T03:29:52.811Z,5.43
2022-07-25T03:32:20.264Z,4.75
2022-07-25T03:34:47.752Z,5.57
2022-07-25T03:37:14.666Z,5.55
2022-07-25T03:39:42.329Z,5.55
2022-07-25T03:42:09.240Z,5.25
2022-07-25T03:44:37.920Z,4.88
2022-07-25T03:47:06.244Z,5.32
2022-07-25T03:49:33.355Z,5.10
2022-07-25T03:52:00.913Z,5.05
2022-07-25T03:54:27.766Z,5.13
2022-07-25T03:56:54.689Z,5.43
2022-07-25T03:59:22.283Z,5.10
2022-07-25T04:01:51.238Z,4.88
2022-07-25T04:04:19.559Z,5.32
2022-07-25T04:06:47.298Z,4.93
2022-07-25T04:09:15.864Z,5.22
2022-07-25T04:11:43.215Z,5.40
2022-07-25T04:14:10.901Z,4.95
2022-07-25T04:16:38.110Z,5.57
2022-07-25T04:19:07.554Z,5.10
2022-07-25T04:21:35.669Z,4.97
2022-07-25T04:24:02.814Z,5.38
2022-07-25T04:26:29.819Z,4.70
2022-07-25T04:28:58.699Z,5.30
2022-07-25T04:31:26.105Z,4.82
2022-07-25T04:33:53.104Z,5.32
2022-07-25T04:36:20.380Z,4.93
2022-07-25T04:38:47.358Z,4.75
2022-07-25T04:41:14.331Z,4.72
2022-07-25T04:43:46.297Z,5.30
2022-07-25T04:46:20.951Z,4.82
2022-07-25T04:48:48.451Z,5.25
2022-07-25T04:51:17.070Z,5.20
2022-07-25T04:53:44.791Z,5.10
2022-07-25T04:56:11.815Z,4.50
2022-07-25T04:58:38.806Z,5.03
2022-07-25T05:01:06.177Z,5.03
2022-07-25T05:03:33.232Z,5.07
2022-07-25T05:06:00.231Z,5.18
2022-07-25T05:08:27.160Z,5.03
2022-07-25T05:10:54.184Z,5.03
2022-07-25T05:13:21.184Z,5.22
2022-07-25T05:15:48.078Z,5.07
2022-07-25T05:18:15.353Z,5.13
2022-07-25T05:20:42.352Z,5.20
2022-07-25T05:23:09.260Z,5.15
2022-07-25T05:25:36.131Z,4.97
2022-07-25T05:28:03.072Z,4.97
2022-07-25T05:30:29.978Z,5.05
2022-07-25T05:32:56.867Z,4.90
2022-07-25T05:35:23.811Z,5.13
2022-07-25T05:37:50.740Z,4.93
2022-07-25T05:40:19.271Z,5.40
2022-07-25T05:42:46.182Z,4.65
2022-07-25T05:45:13.153Z,5.30
2022-07-25T05:47:40.546Z,5.03
2022-07-25T05:50:08.451Z,5.43
2022-07-25T05:52:35.390Z,5.20
2022-07-25T05:55:02.522Z,4.78
2022-07-25T05:57:29.514Z,4.97
2022-07-25T05:59:56.411Z,4.95
2022-07-25T06:02:23.607Z,4.80
2022-07-25T06:04:50.629Z,5.18
2022-07-25T06:07:17.486Z,5.13
2022-07-25T06:09:44.412Z,5.13
2022-07-25T06:12:11.510Z,5.22
2022-07-25T06:14:38.434Z,4.95
2022-07-25T06:17:05.399Z,5.57
2022-07-25T06:19:32.272Z,5.28
2022-07-25T06:21:59.110Z,5.07
2022-07-25T06:24:26.014Z,4.85
2022-07-25T06:26:52.956Z,5.20
2022-07-25T06:29:19.950Z,4.82
2022-07-25T06:31:47.430Z,5.15
2022-07-25T06:34:14.590Z,5.13
2022-07-25T06:36:41.485Z,4.82
2022-07-25T06:39:08.393Z,5.30
2022-07-25T06:41:37.522Z,5.05
2022-07-25T06:44:05.088Z,5.05
2022-07-25T06:46:33.037Z,5.05
2022-07-25T06:49:00.199Z,5.00
2022-07-25T06:51:27.219Z,5.38
2022-07-25T06:53:54.135Z,5.10
2022-07-25T06:56:21.139Z,4.93
2022-07-25T06:58:48.110Z,5.20
2022-07-25T07:01:15.144Z,5.07
2022-07-25T07:03:42.246Z,5.07
2022-07-25T07:06:09.945Z,5.45
2022-07-25T07:08:37.887Z,6.13
2022-07-25T07:11:06.198Z,5.35
2022-07-25T07:13:33.839Z,5.47
2022-07-25T07:16:01.297Z,6.03
2022-07-25T07:18:28.302Z,5.82
2022-07-25T07:20:55.196Z,5.90
2022-07-25T07:23:22.142Z,5.93
2022-07-25T07:25:49.126Z,6.38
2022-07-25T07:28:16.759Z,5.90
2022-07-25T07:31:14.647Z,6.47
2022-07-25T07:33:31.023Z,6.15
2022-07-25T07:35:58.078Z,5.78
2022-07-25T07:38:26.119Z,5.30
2022-07-25T07:40:53.769Z,5.50
2022-07-25T07:43:23.110Z,5.25
2022-07-25T07:45:52.027Z,5.97
2022-07-25T07:48:18.895Z,5.00
2022-07-25T07:50:45.974Z,6.10
2022-07-25T07:53:12.991Z,5.25
2022-07-25T07:55:45.869Z,5.70
2022-07-25T07:58:16.774Z,5.15
2022-07-25T08:00:46.485Z,5.28
2022-07-25T08:03:18.091Z,4.95
2022-07-25T08:05:45.747Z,4.70
2022-07-25T08:08:15.226Z,4.80
2022-07-25T08:10:46.582Z,4.95
2022-07-25T08:13:30.618Z,4.65
2022-07-25T08:16:00.904Z,4.70
2022-07-25T08:18:35.247Z,4.50
2022-07-25T08:21:06.083Z,5.25
2022-07-25T08:23:40.556Z,4.63
2022-07-25T08:26:07.689Z,4.72
2022-07-25T08:28:34.723Z,4.88
2022-07-25T08:31:01.662Z,4.65
2022-07-25T08:33:28.691Z,4.40
2022-07-25T08:35:58.468Z,4.85
2022-07-25T08:38:28.289Z,4.60
2022-07-25T08:40:57.704Z,5.00
2022-07-25T08:43:24.659Z,4.45
2022-07-25T08:45:54.631Z,5.03
2022-07-25T08:48:26.190Z,4.43
2022-07-25T08:50:56.977Z,4.35
2022-07-25T08:53:34.362Z,4.80
2022-07-25T08:56:12.600Z,4.65
2022-07-25T08:58:44.213Z,4.78
2022-07-25T09:01:13.075Z,5.15
2022-07-25T09:03:42.286Z,4.65
2022-07-25T09:06:21.438Z,4.95
2022-07-25T09:08:59.445Z,4.97
2022-07-25T09:11:37.058Z,4.63
2022-07-25T09:14:14.946Z,4.93
2022-07-25T09:16:45.975Z,4.60
2022-07-25T09:19:22.220Z,4.82
2022-07-25T09:22:05.167Z,5.75
2022-07-25T09:24:35.208Z,4.93
2022-07-25T09:27:12.425Z,4.30
2022-07-25T09:29:42.535Z,5.30
2022-07-25T09:32:20.427Z,4.90
2022-07-25T09:34:50.259Z,5.15
2022-07-25T09:37:25.102Z,4.10
2022-07-25T09:39:52.650Z,4.40
2022-07-25T09:42:32.334Z,4.25
2022-07-25T09:45:14.857Z,3.90
2022-07-25T09:48:01.287Z,4.25
2022-07-25T09:50:31.166Z,4.10
2022-07-25T09:53:02.337Z,4.35
2022-07-25T09:55:31.025Z,4.32
2022-07-25T09:57:58.122Z,4.18
2022-07-25T10:00:28.728Z,3.72
2022-07-25T10:02:55.578Z,3.83
2022-07-25T10:05:38.290Z,3.33
2022-07-25T10:08:08.852Z,3.63
2022-07-25T10:10:41.371Z,3.60
2022-07-25T10:13:28.223Z,3.63
2022-07-25T10:15:55.158Z,3.15
2022-07-25T10:18:28.087Z,3.45
2022-07-25T10:21:25.598Z,3.70
2022-07-25T10:24:07.478Z,3.25
2022-07-25T10:26:51.043Z,3.25
2022-07-25T10:29:18.053Z,2.75
2022-07-25T10:31:51.448Z,2.85
2022-07-25T10:34:33.238Z,2.60
2022-07-25T10:37:18.199Z,2.10
2022-07-25T10:39:46.407Z,2.42
2022-07-25T10:42:16.764Z,2.55
2022-07-25T10:44:57.292Z,2.35
2022-07-25T10:47:27.873Z,2.40
2022-07-25T10:53:00.462Z,2.40
2022-07-25T10:55:29.114Z,2.72
2022-07-25T10:58:21.602Z,2.00
2022-07-25T11:00:48.711Z,2.38
2022-07-25T11:03:18.295Z,2.38
2022-07-25T11:05:47.968Z,2.38
2022-07-25T11:08:23.099Z,2.20
2022-07-25T11:10:53.226Z,2.38
2022-07-25T11:13:20.443Z,2.10
2022-07-25T11:15:48.508Z,2.10
2022-07-25T11:18:15.582Z,2.60
2022-07-25T11:20:42.548Z,2.38
2022-07-25T11:23:09.470Z,2.63
2022-07-25T11:25:36.423Z,2.22
2022-07-25T11:28:03.869Z,2.50
2022-07-25T11:30:31.068Z,2.30
2022-07-25T11:33:01.603Z,2.42
2022-07-25T11:35:33.568Z,2.00
2022-07-25T11:38:03.575Z,2.22
2022-07-25T11:40:33.517Z,2.28
2022-07-25T11:43:00.953Z,1.95
2022-07-25T11:45:33.416Z,2.08
2022-07-25T11:48:12.332Z,2.47
2022-07-25T11:50:43.710Z,2.20
2022-07-25T11:53:16.422Z,2.97
2022-07-25T11:55:43.574Z,1.90
2022-07-25T11:58:13.171Z,2.15
2022-07-25T12:00:44.583Z,2.03
2022-07-25T12:03:19.459Z,2.20
2022-07-25T12:05:47.992Z,2.15
2022-07-25T12:08:22.317Z,2.05
2022-07-25T12:10:51.344Z,2.25
2022-07-25T12:13:31.496Z,2.00
2022-07-25T12:19:18.869Z,2.03
2022-07-25T12:21:46.326Z,1.88
2022-07-25T12:24:13.665Z,2.00
2022-07-25T12:26:40.560Z,1.75
2022-07-25T12:29:07.786Z,2.03
2022-07-25T12:31:35.017Z,2.20
2022-07-25T12:34:01.976Z,1.98
2022-07-25T12:36:28.870Z,1.80
2022-07-25T12:38:55.731Z,2.00
2022-07-25T12:41:23.515Z,2.10
2022-07-25T12:43:50.459Z,2.00
2022-07-25T12:46:17.735Z,2.00
2022-07-25T12:48:45.158Z,1.60
2022-07-25T12:51:12.230Z,1.83
2022-07-25T12:53:42.440Z,1.73
2022-07-25T12:56:09.827Z,2.03
2022-07-25T12:58:37.553Z,1.70
2022-07-25T13:01:06.004Z,1.90
2022-07-25T13:03:33.391Z,1.80
2022-07-25T13:06:00.402Z,1.92
2022-07-25T13:08:27.431Z,1.80
2022-07-25T13:10:54.450Z,2.17
2022-07-25T13:13:21.407Z,1.70
2022-07-25T13:15:48.454Z,1.88
2022-07-25T13:18:15.330Z,2.05
2022-07-25T13:20:42.277Z,2.20
2022-07-25T13:23:09.216Z,2.08
2022-07-25T13:25:36.366Z,2.47
2022-07-25T13:28:10.762Z,2.22
2022-07-25T13:30:38.478Z,2.08
2022-07-25T13:33:05.371Z,1.88
2022-07-25T13:35:38.881Z,1.95
2022-07-25T13:38:11.125Z,1.73
2022-07-25T13:40:44.282Z,1.77
2022-07-25T13:43:13.525Z,1.88
2022-07-25T13:45:42.353Z,2.00
2022-07-25T13:48:29.099Z,1.65
2022-07-25T13:50:59.699Z,1.73
2022-07-25T13:53:30.457Z,1.90
2022-07-25T13:56:01.162Z,1.60
2022-07-25T13:58:29.246Z,2.00
2022-07-25T14:00:56.603Z,1.50
2022-07-25T14:03:26.208Z,2.05
2022-07-25T14:05:53.717Z,1.80
2022-07-25T14:08:22.419Z,1.80
2022-07-25T14:10:50.985Z,1.90
2022-07-25T14:13:18.781Z,1.70
2022-07-25T14:15:56.987Z,1.50
2022-07-25T14:18:24.456Z,1.50
2022-07-25T14:20:51.299Z,1.58
2022-07-25T14:23:18.347Z,2.28
2022-07-25T14:25:45.482Z,2.53
2022-07-25T14:28:12.495Z,2.50
2022-07-25T14:30:39.542Z,2.80
2022-07-25T14:33:06.513Z,2.90
2022-07-25T14:35:35.069Z,2.90
2022-07-25T14:38:01.971Z,2.30
2022-07-25T14:40:28.867Z,2.30
2022-07-25T14:42:55.825Z,1.92
2022-07-25T14:45:22.759Z,1.80
2022-07-25T14:47:49.683Z,1.90
2022-07-25T14:50:16.612Z,1.92
2022-07-25T14:52:43.597Z,2.42
2022-07-25T14:55:10.555Z,2.63
2022-07-25T14:57:37.793Z,2.92
2022-07-25T15:00:07.166Z,2.97
2022-07-25T15:02:35.651Z,2.83
2022-07-25T15:05:02.681Z,2.78
2022-07-25T15:07:29.728Z,2.03
2022-07-25T15:09:56.982Z,2.00
2022-07-25T15:12:24.766Z,2.17
2022-07-25T15:14:54.165Z,2.13
2022-07-25T15:17:21.665Z,2.47
2022-07-25T15:19:49.847Z,2.03
2022-07-25T15:22:17.656Z,1.52
2022-07-25T15:25:21.503Z,2.17
2022-07-25T15:27:37.574Z,1.55
2022-07-25T15:30:07.474Z,1.40
2022-07-25T15:32:35.697Z,1.67
2022-07-25T15:35:03.202Z,1.80
2022-07-25T15:37:32.314Z,1.65
2022-07-25T15:39:59.341Z,1.88
2022-07-25T15:42:29.170Z,1.23
2022-07-25T15:45:22.133Z,1.70
2022-07-25T15:47:50.665Z,1.50
2022-07-25T15:50:20.838Z,1.50
2022-07-25T15:52:49.938Z,1.65
2022-07-25T15:55:16.867Z,1.45
2022-07-25T15:57:43.850Z,1.75
2022-07-25T16:00:12.089Z,1.77
2022-07-25T16:02:40.208Z,1.48
2022-07-25T16:05:07.691Z,1.27
2022-07-25T16:07:35.869Z,1.40
2022-07-25T16:10:03.035Z,1.40
2022-07-25T16:12:29.932Z,1.25
2022-07-25T16:14:56.959Z,1.73
2022-07-25T16:17:25.834Z,1.40
2022-07-25T16:19:53.915Z,1.52
2022-07-25T16:22:22.459Z,1.58
2022-07-25T16:24:50.900Z,1.40
2022-07-25T16:27:18.441Z,1.50
2022-07-25T16:29:45.444Z,1.52
2022-07-25T16:32:12.392Z,1.30
2022-07-25T16:34:39.386Z,1.50
2022-07-25T16:37:06.392Z,1.38
2022-07-25T16:39:33.298Z,1.40
2022-07-25T16:42:00.253Z,1.27
2022-07-25T16:44:27.141Z,1.58
2022-07-25T16:46:54.614Z,1.45
2022-07-25T16:49:22.082Z,1.27
2022-07-25T16:51:48.955Z,1.35
2022-07-25T16:54:16.127Z,1.48
2022-07-25T16:56:43.288Z,1.27
2022-07-25T16:59:11.224Z,1.30
2022-07-25T17:01:38.424Z,1.30
2022-07-25T17:04:05.423Z,1.30
2022-07-25T17:06:32.343Z,1.40
2022-07-25T17:08:59.467Z,1.58
2022-07-25T17:11:27.486Z,1.50
2022-07-25T17:13:57.234Z,1.30
2022-07-25T17:16:24.120Z,1.30
2022-07-25T17:18:51.116Z,1.27
2022-07-25T17:21:18.340Z,1.10
2022-07-25T17:23:45.337Z,1.00
2022-07-25T17:26:12.352Z,1.10
2022-07-25T17:28:40.320Z,1.23
2022-07-25T17:31:07.272Z,1.20
2022-07-25T17:33:34.328Z,1.67
2022-07-25T17:36:01.214Z,1.20
2022-07-25T17:38:32.958Z,1.00
2022-07-25T17:41:02.260Z,0.88
2022-07-25T17:43:29.286Z,1.02
2022-07-25T17:45:56.808Z,1.05
2022-07-25T17:48:23.950Z,1.15
2022-07-25T17:50:52.251Z,1.30
2022-07-25T17:53:19.202Z,0.90
2022-07-25T17:55:46.568Z,0.80
2022-07-25T17:58:13.800Z,0.90
2022-07-25T18:00:40.905Z,1.10
2022-07-25T18:03:08.202Z,0.88
2022-07-25T18:05:35.320Z,1.58
2022-07-25T18:08:03.125Z,0.90
2022-07-25T18:10:30.541Z,0.75
2022-07-25T18:13:00.309Z,1.20
2022-07-25T18:15:27.705Z,1.00
2022-07-25T18:17:54.682Z,1.10
2022-07-25T18:20:21.621Z,1.00
2022-07-25T18:22:48.552Z,0.90
2022-07-25T18:25:15.820Z,0.90
2022-07-25T18:27:47.529Z,0.80
2022-07-25T18:30:15.959Z,0.80
2022-07-25T18:32:43.170Z,1.42
2022-07-25T18:35:11.213Z,1.20
2022-07-25T18:37:38.460Z,0.77
2022-07-25T18:40:07.908Z,0.80
2022-07-25T18:42:36.000Z,0.90
2022-07-25T18:45:04.716Z,0.70
2022-07-25T18:47:34.860Z,0.60
2022-07-25T18:50:03.700Z,0.50
2022-07-25T18:52:34.954Z,0.50
2022-07-25T18:55:05.019Z,0.52
2022-07-25T18:57:32.404Z,0.60
2022-07-25T19:00:02.813Z,0.60
2022-07-25T19:02:30.637Z,0.68
2022-07-25T19:04:57.621Z,0.80
2022-07-25T19:07:25.897Z,0.73
2022-07-25T19:09:52.816Z,0.68
2022-07-25T19:12:19.691Z,0.88
2022-07-25T19:14:46.769Z,0.60
2022-07-25T19:17:13.823Z,0.60
2022-07-25T19:19:41.213Z,0.80
2022-07-25T19:22:08.301Z,0.77
2022-07-25T19:24:35.342Z,0.80
2022-07-25T19:27:05.368Z,0.90
2022-07-25T19:29:32.622Z,0.45
2022-07-25T19:31:59.514Z,0.80
2022-07-25T19:34:26.625Z,0.60
2022-07-25T19:36:55.579Z,0.73
2022-07-25T19:39:24.446Z,0.60
2022-07-25T19:41:52.789Z,0.65
2022-07-25T19:44:20.143Z,0.50
2022-07-25T19:46:48.784Z,0.80
2022-07-25T19:49:18.131Z,0.68
2022-07-25T19:51:45.086Z,0.50
2022-07-25T19:54:12.163Z,0.47
2022-07-25T19:56:39.245Z,0.65
2022-07-25T19:59:06.257Z,0.68
2022-07-25T20:01:35.836Z,0.70
2022-07-25T20:04:05.597Z,0.60
2022-07-25T20:06:32.809Z,0.60
2022-07-25T20:09:00.051Z,0.55
2022-07-25T20:11:32.222Z,0.63
2022-07-25T20:14:01.040Z,0.90
2022-07-25T20:16:28.391Z,0.32
2022-07-25T20:18:55.598Z,0.47
2022-07-25T20:21:23.464Z,0.38
2022-07-25T20:23:50.511Z,0.52
2022-07-25T20:26:17.495Z,0.55
2022-07-25T20:28:45.364Z,0.43
2022-07-25T20:31:12.847Z,0.60
2022-07-25T20:33:40.071Z,0.50
2022-07-25T20:36:07.483Z,0.52
2022-07-25T20:38:34.584Z,0.50
2022-07-25T20:41:01.468Z,0.65
2022-07-25T20:43:28.672Z,0.40
2022-07-25T20:45:56.113Z,0.50
2022-07-25T20:48:24.123Z,0.73
2022-07-25T20:50:51.670Z,0.50
2022-07-25T20:53:19.696Z,0.60
2022-07-25T20:55:46.684Z,0.65
2022-07-25T20:58:13.547Z,0.50
2022-07-25T21:00:41.152Z,0.50
2022-07-25T21:03:08.429Z,0.45
2022-07-25T21:05:37.671Z,0.90
2022-07-25T21:08:06.071Z,1.02
2022-07-25T21:10:33.357Z,1.27
2022-07-25T21:13:01.028Z,1.50
2022-07-25T21:15:27.957Z,0.90
2022-07-25T21:17:54.880Z,0.70
2022-07-25T21:20:21.820Z,0.50
2022-07-25T21:22:49.241Z,0.70
2022-07-25T21:25:16.312Z,0.60
2022-07-25T21:27:44.335Z,0.60
2022-07-25T21:30:12.063Z,1.10
2022-07-25T21:32:40.950Z,0.60
2022-07-25T21:35:08.672Z,0.70
2022-07-25T21:37:38.749Z,0.43
2022-07-25T21:40:06.851Z,0.73
2022-07-25T21:42:35.279Z,0.80
2022-07-25T21:45:02.422Z,0.88
2022-07-25T21:47:29.497Z,0.90
2022-07-25T21:50:17.574Z,0.73
2022-07-25T21:52:53.513Z,0.50
2022-07-25T21:55:21.542Z,0.80
2022-07-25T21:57:49.647Z,0.80
2022-07-25T22:00:18.032Z,0.47
2022-07-25T22:02:47.202Z,0.60
2022-07-25T22:05:16.256Z,0.80
2022-07-25T22:07:46.520Z,0.50
2022-07-25T22:10:16.210Z,0.70
2022-07-25T22:12:44.084Z,0.70
2022-07-25T22:15:14.808Z,0.60
2022-07-25T22:17:48.507Z,0.80
2022-07-25T22:22:45.847Z,0.90
2022-07-25T22:25:13.684Z,0.80
2022-07-25T22:27:40.572Z,0.80
2022-07-25T22:30:16.413Z,0.77
2022-07-25T22:32:47.784Z,0.88
2022-07-25T22:35:15.383Z,1.00
2022-07-25T22:37:43.885Z,0.80
2022-07-25T22:40:11.816Z,0.75
2022-07-25T22:42:38.764Z,0.90
2022-07-25T22:45:06.653Z,0.80
2022-07-25T22:47:33.639Z,0.70
2022-07-25T22:50:00.618Z,0.73
2022-07-25T22:52:27.643Z,0.85
2022-07-25T22:54:54.582Z,0.90
2022-07-25T22:57:21.538Z,0.98
2022-07-25T22:59:50.068Z,1.15
2022-07-25T23:02:16.984Z,0.98
2022-07-25T23:04:44.064Z,0.80
2022-07-25T23:07:11.247Z,1.10
2022-07-25T23:09:38.427Z,0.98
2022-07-25T23:12:05.580Z,0.88
2022-07-25T23:14:32.751Z,1.05
2022-07-25T23:17:17.728Z,0.95
2022-07-25T23:19:50.540Z,0.75
2022-07-25T23:22:19.135Z,0.70
2022-07-25T23:24:46.549Z,0.95
2022-07-25T23:27:14.351Z,1.20
2022-07-25T23:29:42.526Z,0.75
2022-07-25T23:32:09.470Z,1.20
2022-07-25T23:34:36.635Z,0.80
2022-07-25T23:37:04.145Z,1.00
2022-07-25T23:39:31.767Z,0.77
2022-07-25T23:42:00.148Z,0.70
2022-07-25T23:44:27.108Z,0.90
2022-07-25T23:46:56.575Z,0.82
2022-07-25T23:49:24.399Z,1.00
2022-07-25T23:51:51.522Z,0.80
2022-07-25T23:54:18.530Z,0.95
2022-07-25T23:56:45.519Z,0.90
2022-07-25T23:59:12.410Z,0.85
